Time;durP1;ratioP1;P1;durP2;ratioP2;P2;SDS_P1;SDS_P2;PMS_P1;PMS_P2;Temp;Humidity;BMP_temperature;BMP_pressure;BME280_temperature;BME280_humidity;BME280_pressure;Samples;Min_cycle;Max_cycle;Signal;HPM_P1;HPM_P2
2021/07/23 00:00:10;;;;;;;;;;;17.90;99.60;;;;;;6334506;28;19981;-67
2021/07/23 00:03:11;;;;;;;;;;;17.90;99.90;;;;;;6330423;28;20081;-67
2021/07/23 00:06:14;;;;;;;;;;;17.80;99.60;;;;;;6329188;28;19978;-67
2021/07/23 00:09:15;;;;;;;;;;;17.80;99.90;;;;;;6330532;28;20023;-67
2021/07/23 00:12:17;;;;;;;;;;;17.80;99.90;;;;;;6318420;28;19979;-67
2021/07/23 00:15:19;;;;;;;;;;;17.70;99.90;;;;;;6331957;28;20022;-67
2021/07/23 00:18:21;;;;;;;;;;;17.70;99.70;;;;;;6334666;28;19974;-67
2021/07/23 00:21:22;;;;;;;;;;;17.70;99.80;;;;;;6333940;28;19970;-67
2021/07/23 00:24:24;;;;;;;;;;;17.60;99.80;;;;;;6332288;28;20022;-67
2021/07/23 00:27:26;;;;;;;;;;;17.60;99.90;;;;;;6334018;28;19971;-67
2021/07/23 00:30:28;;;;;;;;;;;17.50;99.90;;;;;;6330847;28;20411;-67
2021/07/23 00:33:29;;;;;;;;;;;17.50;99.80;;;;;;6335627;28;20022;-67
2021/07/23 00:36:31;;;;;;;;;;;17.50;99.90;;;;;;6334876;28;19978;-67
2021/07/23 00:39:33;;;;;;;;;;;17.50;99.80;;;;;;6336209;28;20045;-67
2021/07/23 00:42:35;;;;;;;;;;;17.50;99.50;;;;;;6340087;28;20357;-67
2021/07/23 00:45:37;;;;;;;;;;;17.40;99.70;;;;;;6340561;28;20357;-67
2021/07/23 00:48:38;;;;;;;;;;;17.40;99.80;;;;;;6336127;28;19971;-67
2021/07/23 00:51:40;;;;;;;;;;;17.40;99.50;;;;;;6336270;28;20314;-67
2021/07/23 00:54:42;;;;;;;;;;;17.40;99.90;;;;;;6338647;28;19981;-67
2021/07/23 00:57:43;;;;;;;;;;;17.30;99.90;;;;;;6330991;28;19982;-66
2021/07/23 01:00:45;;;;;;;;;;;17.30;99.90;;;;;;6338906;28;19976;-67
2021/07/23 01:03:47;;;;;;;;;;;17.20;99.80;;;;;;6339077;28;20039;-67
2021/07/23 01:06:49;;;;;;;;;;;17.10;99.40;;;;;;6318570;28;19975;-67
2021/07/23 01:09:50;;;;;;;;;;;17.10;99.80;;;;;;6348251;28;19982;-67
2021/07/23 01:12:52;;;;;;;;;;;17.00;99.90;;;;;;6327543;28;20494;-67
2021/07/23 01:15:54;;;;;;;;;;;16.90;99.90;;;;;;6314040;28;19976;-67
2021/07/23 01:18:55;;;;;;;;;;;16.90;99.60;;;;;;6332085;28;20339;-67
2021/07/23 01:21:59;;;;;;;;;;;16.80;99.90;;;;;;6332651;28;19984;-67
2021/07/23 01:25:01;;;;;;;;;;;16.80;99.90;;;;;;6315082;28;19978;-67
2021/07/23 01:28:04;;;;;;;;;;;16.70;99.50;;;;;;6345564;28;19982;-67
2021/07/23 01:31:05;;;;;;;;;;;16.70;99.90;;;;;;6319835;28;19977;-67
2021/07/23 01:34:07;;;;;;;;;;;16.60;99.90;;;;;;6338247;28;19982;-67
2021/07/23 01:37:09;;;;;;;;;;;16.60;99.90;;;;;;6322333;28;19970;-67
2021/07/23 01:40:10;;;;;;;;;;;16.50;99.90;;;;;;6342406;28;20024;-67
2021/07/23 01:43:13;;;;;;;;;;;16.40;99.90;;;;;;6342437;28;20529;-67
2021/07/23 01:46:15;;;;;;;;;;;16.40;99.90;;;;;;6335341;28;20407;-67
2021/07/23 01:49:16;;;;;;;;;;;16.30;99.90;;;;;;6339591;28;20026;-67
2021/07/23 01:52:18;;;;;;;;;;;16.30;99.90;;;;;;6338788;28;19997;-67
2021/07/23 01:55:20;;;;;;;;;;;16.30;99.90;;;;;;6316098;28;19967;-67
2021/07/23 01:58:21;;;;;;;;;;;16.20;99.90;;;;;;6339512;28;20002;-67
2021/07/23 02:01:23;;;;;;;;;;;16.20;99.90;;;;;;6314651;28;20075;-67
2021/07/23 02:04:25;;;;;;;;;;;16.20;99.90;;;;;;6339642;28;19990;-67
2021/07/23 02:07:29;;;;;;;;;;;16.10;99.90;;;;;;6344473;28;19979;-67
2021/07/23 02:10:31;;;;;;;;;;;16.10;99.90;;;;;;6341138;28;19982;-67
2021/07/23 02:13:33;;;;;;;;;;;16.10;99.90;;;;;;6304509;28;20362;-67
2021/07/23 02:16:35;;;;;;;;;;;16.00;99.90;;;;;;6335458;28;20342;-67
2021/07/23 02:19:36;;;;;;;;;;;16.00;99.90;;;;;;6327337;28;19982;-67
2021/07/23 02:22:38;;;;;;;;;;;16.00;99.90;;;;;;6309668;28;19996;-66
2021/07/23 02:25:40;;;;;;;;;;;16.00;99.80;;;;;;6323262;28;20045;-67
2021/07/23 02:28:41;;;;;;;;;;;16.00;99.30;;;;;;6323637;28;19976;-67
2021/07/23 02:31:43;;;;;;;;;;;15.90;99.80;;;;;;6314178;28;19976;-67
2021/07/23 02:34:44;;;;;;;;;;;15.90;99.90;;;;;;6316392;28;19980;-67
2021/07/23 02:37:46;;;;;;;;;;;15.80;99.80;;;;;;6319599;28;20037;-67
2021/07/23 02:40:48;;;;;;;;;;;15.80;99.70;;;;;;6312052;28;20407;-67
2021/07/23 02:43:50;;;;;;;;;;;15.70;99.50;;;;;;6316922;28;20022;-67
2021/07/23 02:46:51;;;;;;;;;;;15.70;99.90;;;;;;6337244;28;19977;-67
2021/07/23 02:49:53;;;;;;;;;;;15.60;99.90;;;;;;6335180;28;20090;-67
2021/07/23 02:52:55;;;;;;;;;;;15.60;99.90;;;;;;6334593;28;19983;-67
2021/07/23 02:55:56;;;;;;;;;;;15.50;99.90;;;;;;6339839;28;19939;-67
2021/07/23 02:58:58;;;;;;;;;;;15.50;99.90;;;;;;6337582;28;20058;-67
2021/07/23 03:02:00;;;;;;;;;;;15.50;99.90;;;;;;6334427;28;19979;-67
2021/07/23 03:05:02;;;;;;;;;;;15.40;99.90;;;;;;6340150;28;19987;-67
2021/07/23 03:08:04;;;;;;;;;;;15.40;99.90;;;;;;6337921;28;20417;-67
2021/07/23 03:11:06;;;;;;;;;;;15.40;99.90;;;;;;6328009;28;19972;-67
2021/07/23 03:14:08;;;;;;;;;;;15.30;99.90;;;;;;6321475;28;19999;-67
2021/07/23 03:17:10;;;;;;;;;;;15.30;99.90;;;;;;6340372;28;20028;-67
2021/07/23 03:20:12;;;;;;;;;;;15.20;99.90;;;;;;6326174;28;19973;-67
2021/07/23 03:23:35;;;;;;;;;;;15.20;99.90;;;;;;6341895;28;20009;-67
2021/07/23 03:26:37;;;;;;;;;;;15.10;99.90;;;;;;6338871;28;19976;-67
2021/07/23 03:29:38;;;;;;;;;;;15.10;99.90;;;;;;6340556;28;19979;-67
2021/07/23 03:32:40;;;;;;;;;;;15.00;99.90;;;;;;6327897;28;19983;-67
2021/07/23 03:35:41;;;;;;;;;;;15.00;99.90;;;;;;6334627;28;19988;-67
2021/07/23 03:38:43;;;;;;;;;;;15.00;99.90;;;;;;6334124;28;19999;-67
2021/07/23 03:41:46;;;;;;;;;;;14.90;99.90;;;;;;6326781;28;19972;-67
2021/07/23 03:44:47;;;;;;;;;;;14.90;99.90;;;;;;6335650;28;20006;-67
2021/07/23 03:47:49;;;;;;;;;;;14.90;99.90;;;;;;6334319;28;19983;-67
2021/07/23 03:50:50;;;;;;;;;;;14.90;99.90;;;;;;6328398;28;19984;-67
2021/07/23 03:53:52;;;;;;;;;;;14.90;99.90;;;;;;6316644;28;20056;-67
2021/07/23 03:56:54;;;;;;;;;;;15.00;99.90;;;;;;6336588;28;20056;-67
2021/07/23 03:59:55;;;;;;;;;;;15.00;99.90;;;;;;6314587;28;19976;-67
2021/07/23 04:02:58;;;;;;;;;;;15.10;99.90;;;;;;6330076;28;20438;-67
2021/07/23 04:06:00;;;;;;;;;;;15.10;99.90;;;;;;6336680;28;19931;-67
2021/07/23 04:09:03;;;;;;;;;;;15.10;99.90;;;;;;6333523;28;19976;-67
2021/07/23 04:12:04;;;;;;;;;;;15.10;99.90;;;;;;6312958;28;20017;-67
2021/07/23 04:15:09;;;;;;;;;;;15.20;99.90;;;;;;6335871;28;19999;-67
2021/07/23 04:18:11;;;;;;;;;;;15.20;99.90;;;;;;6312445;28;20082;-67
2021/07/23 04:21:12;;;;;;;;;;;15.30;99.90;;;;;;6326211;28;19958;-67
2021/07/23 04:24:14;;;;;;;;;;;15.40;99.90;;;;;;6337301;28;19992;-67
2021/07/23 04:27:16;;;;;;;;;;;15.40;99.90;;;;;;6333966;28;19980;-67
2021/07/23 04:30:18;;;;;;;;;;;15.50;99.90;;;;;;6334478;28;20484;-67
2021/07/23 04:33:20;;;;;;;;;;;15.60;99.90;;;;;;6331260;28;19980;-67
2021/07/23 04:36:28;;;;;;;;;;;15.60;99.90;;;;;;6307858;28;19971;-67
2021/07/23 04:39:30;;;;;;;;;;;15.60;99.90;;;;;;6326427;28;19987;-67
2021/07/23 04:42:34;;;;;;;;;;;15.60;99.90;;;;;;6310151;28;19994;-67
2021/07/23 04:45:36;;;;;;;;;;;15.70;99.90;;;;;;6340942;28;20026;-67
2021/07/23 04:48:38;;;;;;;;;;;15.70;99.90;;;;;;6328024;28;19972;-67
2021/07/23 04:51:39;;;;;;;;;;;15.70;99.90;;;;;;6308751;28;20080;-67
2021/07/23 04:54:41;;;;;;;;;;;15.80;99.90;;;;;;6330613;28;19982;-67
2021/07/23 04:57:47;;;;;;;;;;;15.80;99.90;;;;;;6339119;28;20401;-67
2021/07/23 05:00:50;;;;;;;;;;;15.80;99.90;;;;;;6326236;28;19975;-67
2021/07/23 05:03:52;;;;;;;;;;;15.90;99.90;;;;;;6312527;28;20573;-67
2021/07/23 05:06:53;;;;;;;;;;;15.90;99.90;;;;;;6335444;28;19979;-67
2021/07/23 05:09:55;;;;;;;;;;;15.90;99.90;;;;;;6330772;28;19978;-67
2021/07/23 05:12:57;;;;;;;;;;;16.00;99.90;;;;;;6320583;28;20892;-67
2021/07/23 05:15:58;;;;;;;;;;;16.00;99.90;;;;;;6332976;28;19974;-67
2021/07/23 05:19:01;;;;;;;;;;;16.00;99.90;;;;;;6324169;28;19976;-67
2021/07/23 05:22:02;;;;;;;;;;;16.00;99.90;;;;;;6332941;28;19979;-67
2021/07/23 05:25:05;;;;;;;;;;;16.10;99.90;;;;;;6325557;28;19991;-67
2021/07/23 05:28:07;;;;;;;;;;;16.10;99.90;;;;;;6338055;28;19984;-67
2021/07/23 05:31:09;;;;;;;;;;;16.10;99.90;;;;;;6318553;28;19978;-67
2021/07/23 05:34:10;;;;;;;;;;;16.20;99.90;;;;;;6337239;28;19974;-67
2021/07/23 05:37:12;;;;;;;;;;;16.20;99.90;;;;;;6336005;28;19976;-67
2021/07/23 05:40:16;;;;;;;;;;;16.20;99.90;;;;;;6303011;28;20066;-67
2021/07/23 05:43:17;;;;;;;;;;;16.20;99.90;;;;;;6333933;28;19986;-67
2021/07/23 05:46:19;;;;;;;;;;;16.30;99.90;;;;;;6327510;28;19982;-67
2021/07/23 05:49:21;;;;;;;;;;;16.30;99.90;;;;;;6329781;28;19974;-67
2021/07/23 05:52:22;;;;;;;;;;;16.30;99.90;;;;;;6316367;28;20435;-67
2021/07/23 05:55:24;;;;;;;;;;;16.30;99.90;;;;;;6342640;28;19979;-67
2021/07/23 05:58:26;;;;;;;;;;;16.30;99.90;;;;;;6315079;28;20417;-67
2021/07/23 06:01:28;;;;;;;;;;;16.40;99.90;;;;;;6318807;28;19972;-67
2021/07/23 06:04:29;;;;;;;;;;;16.40;99.90;;;;;;6303773;28;19992;-67
2021/07/23 06:07:32;;;;;;;;;;;16.50;99.90;;;;;;6335801;28;19974;-67
2021/07/23 06:10:33;;;;;;;;;;;16.50;99.90;;;;;;6317258;28;20001;-67
2021/07/23 06:13:36;;;;;;;;;;;16.50;99.90;;;;;;6310222;28;19998;-67
2021/07/23 06:16:42;;;;;;;;;;;16.60;99.90;;;;;;6336856;28;20376;-67
2021/07/23 06:19:43;;;;;;;;;;;16.60;99.90;;;;;;6334352;28;19971;-67
2021/07/23 06:22:45;;;;;;;;;;;16.70;99.90;;;;;;6334167;28;19975;-67
2021/07/23 06:25:46;;;;;;;;;;;16.70;99.90;;;;;;6345104;28;19998;-67
2021/07/23 06:28:48;;;;;;;;;;;16.70;99.90;;;;;;6340136;28;19989;-67
2021/07/23 06:31:50;;;;;;;;;;;16.70;99.90;;;;;;6320353;28;19982;-67
2021/07/23 06:34:52;;;;;;;;;;;16.70;99.90;;;;;;6334257;28;19959;-67
2021/07/23 06:37:53;;;;;;;;;;;16.80;99.90;;;;;;6315832;28;19982;-67
2021/07/23 06:40:55;;;;;;;;;;;16.80;99.90;;;;;;6344996;28;19983;-67
2021/07/23 06:43:57;;;;;;;;;;;16.80;99.90;;;;;;6332337;28;19991;-67
2021/07/23 06:46:59;;;;;;;;;;;16.90;99.90;;;;;;6341019;28;19976;-67
2021/07/23 06:50:01;;;;;;;;;;;16.90;99.90;;;;;;6316298;28;20318;-68
2021/07/23 06:53:03;;;;;;;;;;;17.00;99.90;;;;;;6328630;28;20331;-68
2021/07/23 06:56:04;;;;;;;;;;;17.00;99.90;;;;;;6323526;28;19983;-67
2021/07/23 06:59:06;;;;;;;;;;;17.00;99.90;;;;;;6330107;28;20372;-67
2021/07/23 07:02:08;;;;;;;;;;;17.10;99.90;;;;;;6333078;28;20023;-67
2021/07/23 07:05:09;;;;;;;;;;;17.10;99.90;;;;;;6334061;28;20393;-67
2021/07/23 07:08:11;;;;;;;;;;;17.10;99.90;;;;;;6341000;28;20410;-67
2021/07/23 07:11:13;;;;;;;;;;;17.20;99.90;;;;;;6335915;28;19975;-67
2021/07/23 07:14:14;;;;;;;;;;;17.20;99.90;;;;;;6338089;28;20473;-67
2021/07/23 07:17:18;;;;;;;;;;;17.30;99.90;;;;;;6342921;28;20475;-67
2021/07/23 07:20:19;;;;;;;;;;;17.30;99.90;;;;;;6329302;28;19997;-67
2021/07/23 07:23:21;;;;;;;;;;;17.40;99.90;;;;;;6328982;28;20322;-67
2021/07/23 07:26:23;;;;;;;;;;;17.40;99.90;;;;;;6335025;28;20405;-68
2021/07/23 07:29:24;;;;;;;;;;;17.50;99.90;;;;;;6317079;28;19963;-67
2021/07/23 07:32:28;;;;;;;;;;;17.50;99.90;;;;;;6322205;28;21423;-67
2021/07/23 07:35:29;;;;;;;;;;;17.50;99.90;;;;;;6309087;28;19981;-67
2021/07/23 07:38:31;;;;;;;;;;;17.60;99.90;;;;;;6336622;28;20009;-67
2021/07/23 07:41:32;;;;;;;;;;;17.70;99.90;;;;;;6330803;28;19980;-67
2021/07/23 07:44:34;;;;;;;;;;;17.70;99.90;;;;;;6333121;28;19997;-67
2021/07/23 07:47:36;;;;;;;;;;;17.70;99.90;;;;;;6330037;28;20019;-67
2021/07/23 07:50:37;;;;;;;;;;;17.70;99.90;;;;;;6342339;28;19971;-67
2021/07/23 07:53:39;;;;;;;;;;;17.80;99.90;;;;;;6315767;28;19970;-67
2021/07/23 07:56:41;;;;;;;;;;;17.80;99.90;;;;;;6334997;28;19983;-67
2021/07/23 07:59:43;;;;;;;;;;;17.90;99.90;;;;;;6342045;28;19981;-68
2021/07/23 08:02:46;;;;;;;;;;;17.90;99.90;;;;;;6328422;28;19975;-67
2021/07/23 08:05:48;;;;;;;;;;;17.90;99.90;;;;;;6341169;28;20098;-67
2021/07/23 08:08:51;;;;;;;;;;;18.00;99.90;;;;;;6340794;28;19981;-67
2021/07/23 08:11:53;;;;;;;;;;;18.00;99.90;;;;;;6334294;28;19997;-67
2021/07/23 08:14:55;;;;;;;;;;;18.00;99.90;;;;;;6333579;28;20002;-67
2021/07/23 08:17:59;;;;;;;;;;;18.10;99.90;;;;;;6332483;28;19976;-67
2021/07/23 08:21:02;;;;;;;;;;;18.10;99.90;;;;;;6328986;28;19989;-67
2021/07/23 08:24:04;;;;;;;;;;;18.10;99.90;;;;;;6332431;28;20480;-67
2021/07/23 08:27:06;;;;;;;;;;;18.20;99.90;;;;;;6338947;28;20305;-67
2021/07/23 08:30:07;;;;;;;;;;;18.20;99.90;;;;;;6341194;28;19976;-67
2021/07/23 08:33:09;;;;;;;;;;;18.20;99.90;;;;;;6332668;28;19979;-68
2021/07/23 08:36:11;;;;;;;;;;;18.20;99.90;;;;;;6336603;28;19980;-67
2021/07/23 08:39:13;;;;;;;;;;;18.30;99.90;;;;;;6338694;28;19975;-68
2021/07/23 08:42:27;;;;;;;;;;;18.30;99.90;;;;;;6339279;28;20393;-67
2021/07/23 08:45:29;;;;;;;;;;;18.30;99.90;;;;;;6317995;28;20033;-67
2021/07/23 08:48:31;;;;;;;;;;;18.40;99.90;;;;;;6337740;28;19993;-67
2021/07/23 08:51:33;;;;;;;;;;;18.40;99.90;;;;;;6338886;28;19970;-68
2021/07/23 08:54:35;;;;;;;;;;;18.40;99.90;;;;;;6342219;28;20693;-67
2021/07/23 08:57:36;;;;;;;;;;;18.40;99.90;;;;;;6305267;28;19979;-67
2021/07/23 09:00:38;;;;;;;;;;;18.50;99.90;;;;;;6311255;28;19977;-68
2021/07/23 09:03:40;;;;;;;;;;;18.50;99.90;;;;;;6321454;28;19975;-67
2021/07/23 09:06:45;;;;;;;;;;;18.50;99.90;;;;;;6333303;28;19980;-68
2021/07/23 09:09:54;;;;;;;;;;;18.50;99.90;;;;;;6341453;28;20371;-67
2021/07/23 09:13:01;;;;;;;;;;;18.60;99.90;;;;;;6331594;28;20353;-67
2021/07/23 09:16:02;;;;;;;;;;;18.60;99.90;;;;;;6342471;28;19976;-67
2021/07/23 09:19:05;;;;;;;;;;;18.70;99.90;;;;;;6309374;28;20118;-67
2021/07/23 09:22:07;;;;;;;;;;;18.70;99.90;;;;;;6334921;28;19986;-68
2021/07/23 09:25:09;;;;;;;;;;;18.70;99.90;;;;;;6324114;28;19990;-67
2021/07/23 09:28:24;;;;;;;;;;;18.80;99.90;;;;;;6336698;28;19979;-67
2021/07/23 09:31:29;;;;;;;;;;;18.90;99.90;;;;;;6337986;28;20330;-68
2021/07/23 09:34:34;;;;;;;;;;;18.90;99.90;;;;;;6322076;28;20031;-67
2021/07/23 09:37:47;;;;;;;;;;;18.90;99.90;;;;;;6341381;28;19996;-67
2021/07/23 09:40:50;;;;;;;;;;;18.90;99.90;;;;;;6340494;28;20032;-67
2021/07/23 09:43:58;;;;;;;;;;;19.00;99.90;;;;;;6341896;28;19974;-67
2021/07/23 09:46:59;;;;;;;;;;;19.10;99.90;;;;;;6337263;28;20349;-67
2021/07/23 09:50:02;;;;;;;;;;;19.10;99.90;;;;;;6339629;28;20000;-68
2021/07/23 09:53:04;;;;;;;;;;;19.20;99.90;;;;;;6333666;28;20262;-67
2021/07/23 09:56:06;;;;;;;;;;;19.20;99.90;;;;;;6316742;28;19975;-67
2021/07/23 09:59:28;;;;;;;;;;;19.20;99.90;;;;;;6333473;28;19993;-67
2021/07/23 10:02:32;;;;;;;;;;;19.20;99.90;;;;;;6330002;28;19974;-67
2021/07/23 10:05:38;;;;;;;;;;;19.30;99.90;;;;;;6337462;28;20416;-67
2021/07/23 10:08:40;;;;;;;;;;;19.30;99.90;;;;;;6328085;28;19990;-67
2021/07/23 10:11:43;;;;;;;;;;;19.40;99.90;;;;;;6337401;28;19981;-68
2021/07/23 10:14:46;;;;;;;;;;;19.40;99.90;;;;;;6339334;28;20005;-67
2021/07/23 10:17:47;;;;;;;;;;;19.50;99.90;;;;;;6319367;28;20067;-67
2021/07/23 10:20:49;;;;;;;;;;;19.50;99.90;;;;;;6337063;28;19991;-67
2021/07/23 10:23:51;;;;;;;;;;;19.50;99.90;;;;;;6333234;28;19997;-67
2021/07/23 10:26:53;;;;;;;;;;;19.60;99.90;;;;;;6334423;28;19981;-67
2021/07/23 10:29:55;;;;;;;;;;;19.60;99.90;;;;;;6315580;28;20003;-68
2021/07/23 10:32:56;;;;;;;;;;;19.60;99.90;;;;;;6340214;28;19974;-67
2021/07/23 10:35:58;;;;;;;;;;;19.60;99.90;;;;;;6334853;28;20084;-67
2021/07/23 10:39:09;;;;;;;;;;;19.60;99.90;;;;;;6334764;28;19979;-67
2021/07/23 10:42:11;;;;;;;;;;;19.60;99.90;;;;;;6317894;28;20434;-68
2021/07/23 10:45:19;;;;;;;;;;;19.60;99.90;;;;;;6336378;28;20419;-67
2021/07/23 10:48:47;;;;;;;;;;;19.60;99.90;;;;;;6319753;28;20303;-67
2021/07/23 10:51:50;;;;;;;;;;;19.60;99.90;;;;;;6334199;28;20439;-68
2021/07/23 10:55:08;;;;;;;;;;;19.60;99.90;;;;;;6329263;28;19978;-68
2021/07/23 10:58:11;;;;;;;;;;;19.50;99.90;;;;;;6335944;28;19996;-67
2021/07/23 11:01:12;;;;;;;;;;;19.60;99.90;;;;;;6338500;28;19978;-68
2021/07/23 11:04:18;;;;;;;;;;;19.50;99.90;;;;;;6338897;28;19993;-68
2021/07/23 11:07:24;;;;;;;;;;;19.50;99.90;;;;;;6339211;28;19971;-67
2021/07/23 11:10:26;;;;;;;;;;;19.60;99.90;;;;;;6319323;28;19979;-68
2021/07/23 11:13:27;;;;;;;;;;;19.60;99.90;;;;;;6340538;28;19994;-68
2021/07/23 11:16:29;;;;;;;;;;;19.70;99.90;;;;;;6317692;28;19930;-67
2021/07/23 11:19:31;;;;;;;;;;;19.70;99.90;;;;;;6328380;28;20094;-67
2021/07/23 11:22:33;;;;;;;;;;;19.80;99.90;;;;;;6340676;28;19982;-68
2021/07/23 11:25:36;;;;;;;;;;;19.80;99.90;;;;;;6340092;28;20447;-67
2021/07/23 11:28:51;;;;;;;;;;;19.80;99.90;;;;;;6343443;28;19992;-67
2021/07/23 11:32:01;;;;;;;;;;;19.90;99.90;;;;;;6312386;28;20348;-68
2021/07/23 11:35:04;;;;;;;;;;;20.00;99.90;;;;;;6323321;28;20447;-68
2021/07/23 11:38:10;;;;;;;;;;;20.10;99.90;;;;;;6340602;28;19970;-67
2021/07/23 11:41:11;;;;;;;;;;;20.10;99.90;;;;;;6314019;28;19975;-68
2021/07/23 11:44:13;;;;;;;;;;;20.20;99.90;;;;;;6314748;28;20491;-68
2021/07/23 11:47:15;;;;;;;;;;;20.20;99.90;;;;;;6336356;28;19989;-68
2021/07/23 11:50:18;;;;;;;;;;;20.20;99.90;;;;;;6338710;28;20046;-67
2021/07/23 11:53:21;;;;;;;;;;;20.20;99.90;;;;;;6335140;28;20072;-68
2021/07/23 11:56:24;;;;;;;;;;;20.20;99.90;;;;;;6333256;28;19978;-67
2021/07/23 11:59:25;;;;;;;;;;;20.20;99.90;;;;;;6334665;28;19986;-67
2021/07/23 12:02:28;;;;;;;;;;;20.20;99.90;;;;;;6331782;28;19974;-68
2021/07/23 12:05:30;;;;;;;;;;;20.20;99.90;;;;;;6340031;28;20016;-68
2021/07/23 12:08:36;;;;;;;;;;;20.20;99.90;;;;;;6334120;28;19974;-67
2021/07/23 12:11:38;;;;;;;;;;;20.30;99.90;;;;;;6316089;28;19975;-68
2021/07/23 12:14:39;;;;;;;;;;;20.30;99.90;;;;;;6333079;28;19995;-68
2021/07/23 12:17:45;;;;;;;;;;;20.30;99.90;;;;;;6327086;28;20547;-68
2021/07/23 12:20:47;;;;;;;;;;;20.30;99.90;;;;;;6330386;28;20322;-67
2021/07/23 12:23:55;;;;;;;;;;;20.40;99.90;;;;;;6333762;28;20408;-67
2021/07/23 12:27:12;;;;;;;;;;;20.40;99.90;;;;;;6329171;28;19993;-68
2021/07/23 12:30:14;;;;;;;;;;;20.60;99.90;;;;;;6334197;28;20422;-68
2021/07/23 12:33:16;;;;;;;;;;;20.70;99.90;;;;;;6332009;28;20406;-67
2021/07/23 12:36:22;;;;;;;;;;;20.70;99.90;;;;;;6335058;28;19978;-68
2021/07/23 12:39:26;;;;;;;;;;;20.70;99.90;;;;;;6335608;28;20352;-68
2021/07/23 12:42:28;;;;;;;;;;;20.80;99.90;;;;;;6329638;28;19971;-68
2021/07/23 12:45:33;;;;;;;;;;;20.80;99.90;;;;;;6320640;28;20004;-67
2021/07/23 12:48:35;;;;;;;;;;;20.80;99.90;;;;;;6336296;28;19976;-68
2021/07/23 12:51:37;;;;;;;;;;;20.80;99.90;;;;;;6331448;28;19970;-68
2021/07/23 12:54:42;;;;;;;;;;;20.90;99.90;;;;;;6327767;28;20027;-67
2021/07/23 12:57:44;;;;;;;;;;;20.90;99.90;;;;;;6336576;28;19973;-68
2021/07/23 13:00:46;;;;;;;;;;;21.00;99.90;;;;;;6333082;28;20383;-68
2021/07/23 13:03:47;;;;;;;;;;;21.00;99.90;;;;;;6328924;28;20738;-68
2021/07/23 13:06:49;;;;;;;;;;;21.00;99.90;;;;;;6337350;28;20452;-67
2021/07/23 13:09:51;;;;;;;;;;;21.00;99.90;;;;;;6339927;28;19974;-67
2021/07/23 13:12:52;;;;;;;;;;;21.00;99.90;;;;;;6342333;28;19978;-68
2021/07/23 13:15:54;;;;;;;;;;;21.00;99.90;;;;;;6307856;28;20460;-67
2021/07/23 13:18:57;;;;;;;;;;;21.00;99.90;;;;;;6325462;28;19975;-67
2021/07/23 13:22:03;;;;;;;;;;;21.00;99.90;;;;;;6312939;28;19981;-67
2021/07/23 13:25:05;;;;;;;;;;;21.00;99.90;;;;;;6331904;28;19987;-67
2021/07/23 13:28:07;;;;;;;;;;;21.00;99.90;;;;;;6332044;28;20364;-67
2021/07/23 13:31:08;;;;;;;;;;;20.90;99.90;;;;;;6330907;28;20001;-67
2021/07/23 13:34:10;;;;;;;;;;;20.90;99.90;;;;;;6323918;28;20064;-67
2021/07/23 13:37:14;;;;;;;;;;;21.00;99.90;;;;;;6332993;28;19979;-67
2021/07/23 13:40:19;;;;;;;;;;;21.10;99.90;;;;;;6331395;28;19969;-67
2021/07/23 13:43:31;;;;;;;;;;;21.10;99.90;;;;;;6334301;28;19986;-67
2021/07/23 13:46:33;;;;;;;;;;;21.10;99.90;;;;;;6337935;28;20390;-67
2021/07/23 13:49:34;;;;;;;;;;;21.10;99.90;;;;;;6329275;28;19976;-67
2021/07/23 13:52:36;;;;;;;;;;;21.20;99.90;;;;;;6333335;28;19975;-67
2021/07/23 13:55:38;;;;;;;;;;;21.30;99.90;;;;;;6320057;28;19993;-67
2021/07/23 13:58:41;;;;;;;;;;;21.20;99.90;;;;;;6328811;28;20086;-67
2021/07/23 14:01:42;;;;;;;;;;;21.20;99.90;;;;;;6337011;28;19984;-67
2021/07/23 14:04:48;;;;;;;;;;;21.20;99.90;;;;;;6328314;28;20420;-67
2021/07/23 14:07:50;;;;;;;;;;;21.30;99.90;;;;;;6329182;28;19974;-67
2021/07/23 14:10:52;;;;;;;;;;;21.30;99.90;;;;;;6341361;28;20028;-67
2021/07/23 14:13:53;;;;;;;;;;;21.30;99.90;;;;;;6334592;28;19989;-68
2021/07/23 14:16:58;;;;;;;;;;;21.40;99.90;;;;;;6346778;28;19975;-68
2021/07/23 14:19:59;;;;;;;;;;;21.40;99.90;;;;;;6332387;28;20022;-68
2021/07/23 14:23:01;;;;;;;;;;;21.50;99.90;;;;;;6332808;28;19975;-67
2021/07/23 14:26:04;;;;;;;;;;;21.50;99.90;;;;;;6335260;28;20432;-68
2021/07/23 14:29:06;;;;;;;;;;;21.50;99.90;;;;;;6339554;28;19973;-67
2021/07/23 14:32:08;;;;;;;;;;;21.50;99.90;;;;;;6314136;28;19985;-67
2021/07/23 14:35:10;;;;;;;;;;;21.50;99.90;;;;;;6336077;28;19967;-67
2021/07/23 14:38:12;;;;;;;;;;;21.60;99.90;;;;;;6318800;28;19976;-67
2021/07/23 14:41:15;;;;;;;;;;;21.60;99.90;;;;;;6315741;28;19972;-68
2021/07/23 14:44:16;;;;;;;;;;;21.70;99.90;;;;;;6315137;28;19990;-67
2021/07/23 14:47:18;;;;;;;;;;;21.70;99.90;;;;;;6337165;28;20024;-68
2021/07/23 14:50:20;;;;;;;;;;;21.80;99.90;;;;;;6331960;28;20050;-68
2021/07/23 14:53:22;;;;;;;;;;;21.80;99.90;;;;;;6330899;28;19968;-68
2021/07/23 14:56:24;;;;;;;;;;;21.90;99.90;;;;;;6316317;28;19976;-67
2021/07/23 14:59:25;;;;;;;;;;;22.00;99.90;;;;;;6334935;28;20007;-67
2021/07/23 15:02:27;;;;;;;;;;;22.00;99.90;;;;;;6327926;28;19968;-68
2021/07/23 15:05:29;;;;;;;;;;;22.00;99.90;;;;;;6337461;28;19988;-67
2021/07/23 15:08:30;;;;;;;;;;;22.10;99.90;;;;;;6338972;28;20401;-68
2021/07/23 15:11:32;;;;;;;;;;;22.20;99.90;;;;;;6336512;28;20038;-67
2021/07/23 15:14:34;;;;;;;;;;;22.20;99.90;;;;;;6337797;28;20464;-68
2021/07/23 15:17:35;;;;;;;;;;;22.30;99.90;;;;;;6332450;28;19981;-67
2021/07/23 15:20:39;;;;;;;;;;;22.30;99.90;;;;;;6316707;28;19969;-67
2021/07/23 15:23:40;;;;;;;;;;;22.30;99.90;;;;;;6300568;28;19973;-67
2021/07/23 15:26:42;;;;;;;;;;;22.30;99.90;;;;;;6315409;28;19961;-67
2021/07/23 15:29:44;;;;;;;;;;;22.40;99.90;;;;;;6315742;28;20067;-67
2021/07/23 15:32:46;;;;;;;;;;;22.40;99.90;;;;;;6318131;28;19981;-68
2021/07/23 15:35:48;;;;;;;;;;;22.50;99.90;;;;;;6298807;28;20714;-67
2021/07/23 15:38:49;;;;;;;;;;;22.50;99.90;;;;;;6311397;28;20520;-67
2021/07/23 15:41:52;;;;;;;;;;;22.50;99.90;;;;;;6316557;28;19972;-67
2021/07/23 15:44:53;;;;;;;;;;;22.60;99.90;;;;;;6315170;28;20558;-67
2021/07/23 15:47:55;;;;;;;;;;;22.70;99.90;;;;;;6314148;28;20454;-67
2021/07/23 15:50:57;;;;;;;;;;;22.70;99.90;;;;;;6316849;28;19973;-67
2021/07/23 15:53:58;;;;;;;;;;;22.80;99.90;;;;;;6296773;28;19965;-67
2021/07/23 15:57:00;;;;;;;;;;;22.90;99.90;;;;;;6312285;28;20568;-67
2021/07/23 16:00:02;;;;;;;;;;;22.90;99.90;;;;;;6313453;28;19973;-68
2021/07/23 16:03:06;;;;;;;;;;;23.00;99.90;;;;;;6313536;28;20433;-67
2021/07/23 16:06:08;;;;;;;;;;;23.10;99.90;;;;;;6317170;28;20012;-68
2021/07/23 16:09:11;;;;;;;;;;;23.10;99.90;;;;;;6314292;28;20010;-68
2021/07/23 16:12:13;;;;;;;;;;;23.20;99.90;;;;;;6299470;28;19984;-67
2021/07/23 16:15:14;;;;;;;;;;;23.20;99.90;;;;;;6314884;28;20457;-67
2021/07/23 16:18:16;;;;;;;;;;;23.30;99.90;;;;;;6312814;28;19975;-67
2021/07/23 16:21:25;;;;;;;;;;;23.30;99.90;;;;;;6315854;28;19968;-67
2021/07/23 16:24:26;;;;;;;;;;;23.50;99.90;;;;;;6314876;28;19966;-67
2021/07/23 16:27:28;;;;;;;;;;;23.60;99.90;;;;;;6315009;28;20064;-67
2021/07/23 16:30:30;;;;;;;;;;;23.80;99.90;;;;;;6314712;28;19969;-68
2021/07/23 16:33:31;;;;;;;;;;;23.90;99.90;;;;;;6315057;28;19963;-68
2021/07/23 16:36:33;;;;;;;;;;;24.00;99.90;;;;;;6314804;28;19973;-67
2021/07/23 16:39:35;;;;;;;;;;;24.20;99.90;;;;;;6313548;28;20056;-67
2021/07/23 16:42:37;;;;;;;;;;;24.30;99.90;;;;;;6315718;28;19957;-67
2021/07/23 16:45:42;;;;;;;;;;;24.30;99.90;;;;;;6298492;28;19969;-67
2021/07/23 16:48:44;;;;;;;;;;;24.40;99.90;;;;;;6313104;28;20294;-67
2021/07/23 16:51:46;;;;;;;;;;;24.60;99.90;;;;;;6314465;28;20440;-68
2021/07/23 16:54:48;;;;;;;;;;;24.70;99.90;;;;;;6314954;28;19948;-68
2021/07/23 16:57:51;;;;;;;;;;;24.60;99.90;;;;;;6313263;28;20285;-68
2021/07/23 17:00:52;;;;;;;;;;;24.50;99.90;;;;;;6296173;28;23471;-68
2021/07/23 17:04:02;;;;;;;;;;;24.40;99.90;;;;;;6299481;28;20153;-67
2021/07/23 17:07:05;;;;;;;;;;;24.30;99.90;;;;;;6312067;28;19971;-67
2021/07/23 17:10:10;;;;;;;;;;;24.10;99.90;;;;;;6314873;28;19972;-68
2021/07/23 17:13:11;;;;;;;;;;;24.00;99.90;;;;;;6314045;28;19985;-67
2021/07/23 17:16:13;;;;;;;;;;;23.90;99.90;;;;;;6318054;28;19977;-67
2021/07/23 17:19:15;;;;;;;;;;;23.80;99.90;;;;;;6314119;28;19976;-67
2021/07/23 17:22:16;;;;;;;;;;;23.70;99.90;;;;;;6314254;28;20039;-67
2021/07/23 17:25:18;;;;;;;;;;;23.60;99.90;;;;;;6317495;28;19973;-67
2021/07/23 17:28:20;;;;;;;;;;;23.50;99.90;;;;;;6313543;28;19979;-67
2021/07/23 17:31:22;;;;;;;;;;;23.40;99.90;;;;;;6297418;28;19995;-68
2021/07/23 17:34:23;;;;;;;;;;;23.30;99.90;;;;;;6314243;28;19959;-68
2021/07/23 17:37:25;;;;;;;;;;;23.30;99.90;;;;;;6314585;28;19970;-68
2021/07/23 17:40:27;;;;;;;;;;;23.20;99.90;;;;;;6315165;28;20034;-68